sensor_id;sensor_type;location;lat;lon;timestamp;P1;durP1;ratioP1;P2;durP2;ratioP2
26963;SDS011;14521;48.148;-1.656;2022-12-15T00:01:45;2.08;;;1.90;;
26963;SDS011;14521;48.148;-1.656;2022-12-15T00:05:26;2.10;;;1.92;;
26963;SDS011;14521;48.148;-1.656;2022-12-15T00:09:10;2.10;;;2.00;;
26963;SDS011;14521;48.148;-1.656;2022-12-15T00:12:51;2.13;;;2.03;;
26963;SDS011;14521;48.148;-1.656;2022-12-15T00:16:32;1.85;;;1.75;;
26963;SDS011;14521;48.148;-1.656;2022-12-15T00:20:14;2.13;;;2.03;;
26963;SDS011;14521;48.148;-1.656;2022-12-15T00:23:55;1.80;;;1.70;;
26963;SDS011;14521;48.148;-1.656;2022-12-15T00:27:35;1.88;;;1.77;;
26963;SDS011;14521;48.148;-1.656;2022-12-15T00:31:16;1.65;;;1.55;;
26963;SDS011;14521;48.148;-1.656;2022-12-15T00:34:57;1.67;;;1.58;;
26963;SDS011;14521;48.148;-1.656;2022-12-15T00:38:38;1.95;;;1.85;;
26963;SDS011;14521;48.148;-1.656;2022-12-15T00:42:05;1.95;;;1.85;;
26963;SDS011;14521;48.148;-1.656;2022-12-15T00:45:28;1.80;;;1.70;;
26963;SDS011;14521;48.148;-1.656;2022-12-15T00:49:09;1.90;;;1.80;;
26963;SDS011;14521;48.148;-1.656;2022-12-15T00:52:51;1.95;;;1.85;;
26963;SDS011;14521;48.148;-1.656;2022-12-15T00:56:32;1.70;;;1.60;;
26963;SDS011;14521;48.148;-1.656;2022-12-15T01:00:13;1.80;;;1.70;;
26963;SDS011;14521;48.148;-1.656;2022-12-15T01:03:54;2.00;;;1.90;;
26963;SDS011;14521;48.148;-1.656;2022-12-15T01:07:35;2.03;;;1.92;;
26963;SDS011;14521;48.148;-1.656;2022-12-15T01:11:16;1.52;;;1.42;;
26963;SDS011;14521;48.148;-1.656;2022-12-15T01:14:57;1.85;;;1.75;;
26963;SDS011;14521;48.148;-1.656;2022-12-15T01:18:37;2.13;;;2.03;;
26963;SDS011;14521;48.148;-1.656;2022-12-15T01:22:19;1.60;;;1.50;;
26963;SDS011;14521;48.148;-1.656;2022-12-15T01:25:41;1.92;;;1.83;;
26963;SDS011;14521;48.148;-1.656;2022-12-15T01:29:03;1.90;;;1.80;;
26963;SDS011;14521;48.148;-1.656;2022-12-15T01:32:26;2.40;;;1.80;;
26963;SDS011;14521;48.148;-1.656;2022-12-15T01:35:55;1.83;;;1.73;;
26963;SDS011;14521;48.148;-1.656;2022-12-15T01:39:17;1.70;;;1.60;;
26963;SDS011;14521;48.148;-1.656;2022-12-15T01:42:40;1.90;;;1.80;;
26963;SDS011;14521;48.148;-1.656;2022-12-15T01:49:33;1.65;;;1.55;;
26963;SDS011;14521;48.148;-1.656;2022-12-15T01:52:55;1.88;;;1.77;;
26963;SDS011;14521;48.148;-1.656;2022-12-15T01:56:18;1.83;;;1.73;;
26963;SDS011;14521;48.148;-1.656;2022-12-15T01:59:41;1.80;;;1.70;;
26963;SDS011;14521;48.148;-1.656;2022-12-15T02:03:11;1.58;;;1.48;;
26963;SDS011;14521;48.148;-1.656;2022-12-15T02:06:34;2.28;;;2.17;;
26963;SDS011;14521;48.148;-1.656;2022-12-15T02:09:58;2.70;;;1.88;;
26963;SDS011;14521;48.148;-1.656;2022-12-15T02:32:12;2.00;;;1.80;;
26963;SDS011;14521;48.148;-1.656;2022-12-15T02:35:52;2.25;;;1.90;;
26963;SDS011;14521;48.148;-1.656;2022-12-15T02:39:23;2.55;;;2.35;;
26963;SDS011;14521;48.148;-1.656;2022-12-15T02:42:47;2.08;;;1.88;;
26963;SDS011;14521;48.148;-1.656;2022-12-15T02:46:18;2.20;;;2.10;;
26963;SDS011;14521;48.148;-1.656;2022-12-15T02:57:24;2.23;;;2.10;;
26963;SDS011;14521;48.148;-1.656;2022-12-15T03:00:51;2.55;;;2.40;;
26963;SDS011;14521;48.148;-1.656;2022-12-15T03:04:19;2.40;;;2.20;;
26963;SDS011;14521;48.148;-1.656;2022-12-15T03:07:42;1.70;;;1.60;;
26963;SDS011;14521;48.148;-1.656;2022-12-15T03:11:10;2.33;;;2.22;;
26963;SDS011;14521;48.148;-1.656;2022-12-15T03:14:32;2.42;;;2.22;;
26963;SDS011;14521;48.148;-1.656;2022-12-15T03:17:55;2.10;;;2.00;;
26963;SDS011;14521;48.148;-1.656;2022-12-15T03:21:17;2.03;;;1.92;;
26963;SDS011;14521;48.148;-1.656;2022-12-15T03:24:39;2.20;;;2.10;;
26963;SDS011;14521;48.148;-1.656;2022-12-15T03:28:01;2.53;;;2.05;;
26963;SDS011;14521;48.148;-1.656;2022-12-15T03:31:24;2.30;;;2.10;;
26963;SDS011;14521;48.148;-1.656;2022-12-15T03:34:46;2.10;;;1.95;;
26963;SDS011;14521;48.148;-1.656;2022-12-15T03:38:09;2.33;;;2.13;;
26963;SDS011;14521;48.148;-1.656;2022-12-15T03:41:31;2.45;;;2.25;;
26963;SDS011;14521;48.148;-1.656;2022-12-15T03:44:53;2.50;;;2.30;;
26963;SDS011;14521;48.148;-1.656;2022-12-15T03:48:16;2.40;;;2.20;;
26963;SDS011;14521;48.148;-1.656;2022-12-15T03:51:38;2.80;;;2.60;;
26963;SDS011;14521;48.148;-1.656;2022-12-15T03:55:01;2.40;;;2.22;;
26963;SDS011;14521;48.148;-1.656;2022-12-15T03:58:24;2.47;;;2.30;;
26963;SDS011;14521;48.148;-1.656;2022-12-15T04:01:46;3.05;;;2.17;;
26963;SDS011;14521;48.148;-1.656;2022-12-15T04:05:14;2.92;;;2.08;;
26963;SDS011;14521;48.148;-1.656;2022-12-15T04:08:42;2.38;;;2.28;;
26963;SDS011;14521;48.148;-1.656;2022-12-15T04:12:04;2.80;;;2.60;;
26963;SDS011;14521;48.148;-1.656;2022-12-15T04:15:27;2.63;;;2.47;;
26963;SDS011;14521;48.148;-1.656;2022-12-15T04:18:49;2.13;;;2.03;;
26963;SDS011;14521;48.148;-1.656;2022-12-15T04:22:31;2.15;;;2.05;;
26963;SDS011;14521;48.148;-1.656;2022-12-15T04:25:54;2.10;;;2.00;;
26963;SDS011;14521;48.148;-1.656;2022-12-15T04:29:35;2.20;;;2.10;;
26963;SDS011;14521;48.148;-1.656;2022-12-15T04:33:15;2.10;;;2.00;;
26963;SDS011;14521;48.148;-1.656;2022-12-15T04:36:57;2.75;;;2.55;;
26963;SDS011;14521;48.148;-1.656;2022-12-15T04:40:38;2.35;;;2.25;;
26963;SDS011;14521;48.148;-1.656;2022-12-15T04:44:20;2.40;;;2.20;;
26963;SDS011;14521;48.148;-1.656;2022-12-15T04:48:01;2.33;;;2.13;;
26963;SDS011;14521;48.148;-1.656;2022-12-15T04:51:41;2.00;;;1.90;;
26963;SDS011;14521;48.148;-1.656;2022-12-15T04:55:22;1.75;;;1.65;;
26963;SDS011;14521;48.148;-1.656;2022-12-15T04:59:04;1.80;;;1.70;;
26963;SDS011;14521;48.148;-1.656;2022-12-15T05:02:45;2.00;;;1.90;;
26963;SDS011;14521;48.148;-1.656;2022-12-15T05:06:26;2.05;;;1.95;;
26963;SDS011;14521;48.148;-1.656;2022-12-15T05:10:07;1.42;;;1.33;;
26963;SDS011;14521;48.148;-1.656;2022-12-15T05:13:48;1.95;;;1.85;;
26963;SDS011;14521;48.148;-1.656;2022-12-15T05:17:29;1.58;;;1.48;;
26963;SDS011;14521;48.148;-1.656;2022-12-15T05:21:10;1.95;;;1.60;;
26963;SDS011;14521;48.148;-1.656;2022-12-15T05:24:51;1.70;;;1.50;;
26963;SDS011;14521;48.148;-1.656;2022-12-15T05:28:32;1.40;;;1.30;;
26963;SDS011;14521;48.148;-1.656;2022-12-15T05:32:13;1.33;;;1.33;;
26963;SDS011;14521;48.148;-1.656;2022-12-15T05:35:35;1.63;;;1.52;;
26963;SDS011;14521;48.148;-1.656;2022-12-15T05:38:57;1.35;;;1.20;;
26963;SDS011;14521;48.148;-1.656;2022-12-15T05:42:20;2.42;;;1.10;;
26963;SDS011;14521;48.148;-1.656;2022-12-15T05:45:42;1.38;;;1.27;;
26963;SDS011;14521;48.148;-1.656;2022-12-15T05:49:05;1.50;;;1.40;;
26963;SDS011;14521;48.148;-1.656;2022-12-15T05:52:28;1.33;;;1.23;;
26963;SDS011;14521;48.148;-1.656;2022-12-15T05:55:51;1.40;;;1.30;;
26963;SDS011;14521;48.148;-1.656;2022-12-15T05:59:13;1.40;;;1.30;;
26963;SDS011;14521;48.148;-1.656;2022-12-15T06:02:36;1.05;;;1.05;;
26963;SDS011;14521;48.148;-1.656;2022-12-15T06:05:59;1.30;;;1.20;;
26963;SDS011;14521;48.148;-1.656;2022-12-15T06:09:23;1.10;;;1.10;;
26963;SDS011;14521;48.148;-1.656;2022-12-15T06:12:45;1.58;;;1.48;;
26963;SDS011;14521;48.148;-1.656;2022-12-15T06:16:18;1.60;;;1.50;;
26963;SDS011;14521;48.148;-1.656;2022-12-15T06:19:41;1.35;;;1.30;;
26963;SDS011;14521;48.148;-1.656;2022-12-15T06:23:04;1.92;;;1.30;;
26963;SDS011;14521;48.148;-1.656;2022-12-15T06:26:27;1.40;;;1.30;;
26963;SDS011;14521;48.148;-1.656;2022-12-15T06:29:50;1.13;;;1.13;;
26963;SDS011;14521;48.148;-1.656;2022-12-15T06:33:13;1.70;;;1.60;;
26963;SDS011;14521;48.148;-1.656;2022-12-15T06:36:35;1.50;;;1.38;;
26963;SDS011;14521;48.148;-1.656;2022-12-15T06:39:57;1.38;;;1.27;;
26963;SDS011;14521;48.148;-1.656;2022-12-15T06:43:19;1.70;;;1.60;;
26963;SDS011;14521;48.148;-1.656;2022-12-15T06:46:42;3.60;;;1.40;;
26963;SDS011;14521;48.148;-1.656;2022-12-15T06:50:06;1.73;;;1.42;;
26963;SDS011;14521;48.148;-1.656;2022-12-15T06:53:29;1.83;;;1.73;;
26963;SDS011;14521;48.148;-1.656;2022-12-15T06:56:52;1.80;;;1.48;;
26963;SDS011;14521;48.148;-1.656;2022-12-15T07:00:14;1.70;;;1.60;;
26963;SDS011;14521;48.148;-1.656;2022-12-15T07:03:37;4.53;;;1.67;;
26963;SDS011;14521;48.148;-1.656;2022-12-15T07:07:01;1.70;;;1.60;;
26963;SDS011;14521;48.148;-1.656;2022-12-15T07:10:23;1.60;;;1.50;;
26963;SDS011;14521;48.148;-1.656;2022-12-15T07:13:52;1.80;;;1.48;;
26963;SDS011;14521;48.148;-1.656;2022-12-15T07:17:15;1.52;;;1.42;;
26963;SDS011;14521;48.148;-1.656;2022-12-15T07:20:37;1.67;;;1.58;;
26963;SDS011;14521;48.148;-1.656;2022-12-15T07:23:59;1.17;;;1.17;;
26963;SDS011;14521;48.148;-1.656;2022-12-15T07:27:23;2.25;;;1.58;;
26963;SDS011;14521;48.148;-1.656;2022-12-15T07:30:45;1.35;;;1.25;;
26963;SDS011;14521;48.148;-1.656;2022-12-15T07:34:08;1.10;;;1.10;;
26963;SDS011;14521;48.148;-1.656;2022-12-15T07:37:31;1.50;;;1.35;;
26963;SDS011;14521;48.148;-1.656;2022-12-15T07:40:53;1.60;;;1.50;;
26963;SDS011;14521;48.148;-1.656;2022-12-15T07:44:16;2.45;;;1.30;;
26963;SDS011;14521;48.148;-1.656;2022-12-15T07:47:38;2.53;;;1.40;;
26963;SDS011;14521;48.148;-1.656;2022-12-15T07:51:07;1.88;;;1.10;;
26963;SDS011;14521;48.148;-1.656;2022-12-15T07:54:39;1.60;;;1.50;;
26963;SDS011;14521;48.148;-1.656;2022-12-15T07:58:01;1.10;;;1.10;;
26963;SDS011;14521;48.148;-1.656;2022-12-15T08:01:24;1.48;;;1.38;;
26963;SDS011;14521;48.148;-1.656;2022-12-15T08:04:47;1.83;;;1.65;;
26963;SDS011;14521;48.148;-1.656;2022-12-15T08:08:09;1.48;;;1.38;;
26963;SDS011;14521;48.148;-1.656;2022-12-15T08:11:36;1.38;;;1.38;;
26963;SDS011;14521;48.148;-1.656;2022-12-15T08:14:58;1.27;;;1.08;;
26963;SDS011;14521;48.148;-1.656;2022-12-15T08:18:21;1.33;;;1.23;;
26963;SDS011;14521;48.148;-1.656;2022-12-15T08:21:44;1.38;;;1.25;;
26963;SDS011;14521;48.148;-1.656;2022-12-15T08:25:07;3.17;;;1.50;;
26963;SDS011;14521;48.148;-1.656;2022-12-15T08:28:30;2.67;;;1.20;;
26963;SDS011;14521;48.148;-1.656;2022-12-15T08:31:54;1.30;;;1.20;;
26963;SDS011;14521;48.148;-1.656;2022-12-15T08:35:16;1.20;;;1.10;;
26963;SDS011;14521;48.148;-1.656;2022-12-15T08:38:59;1.40;;;1.30;;
26963;SDS011;14521;48.148;-1.656;2022-12-15T08:42:22;1.10;;;1.10;;
26963;SDS011;14521;48.148;-1.656;2022-12-15T08:45:44;3.63;;;1.17;;
26963;SDS011;14521;48.148;-1.656;2022-12-15T08:49:07;1.30;;;1.25;;
26963;SDS011;14521;48.148;-1.656;2022-12-15T08:52:30;1.20;;;1.20;;
26963;SDS011;14521;48.148;-1.656;2022-12-15T08:55:53;1.50;;;1.40;;
26963;SDS011;14521;48.148;-1.656;2022-12-15T08:59:15;1.50;;;1.40;;
26963;SDS011;14521;48.148;-1.656;2022-12-15T09:02:37;1.42;;;1.33;;
26963;SDS011;14521;48.148;-1.656;2022-12-15T09:06:00;1.05;;;1.05;;
26963;SDS011;14521;48.148;-1.656;2022-12-15T09:09:24;1.40;;;1.30;;
26963;SDS011;14521;48.148;-1.656;2022-12-15T09:12:47;1.40;;;1.30;;
26963;SDS011;14521;48.148;-1.656;2022-12-15T09:16:13;2.00;;;1.00;;
26963;SDS011;14521;48.148;-1.656;2022-12-15T09:19:40;1.50;;;1.30;;
26963;SDS011;14521;48.148;-1.656;2022-12-15T09:26:24;1.20;;;1.10;;
26963;SDS011;14521;48.148;-1.656;2022-12-15T09:29:47;4.15;;;1.30;;
26963;SDS011;14521;48.148;-1.656;2022-12-15T09:33:10;1.38;;;1.27;;
26963;SDS011;14521;48.148;-1.656;2022-12-15T09:36:32;1.30;;;1.20;;
26963;SDS011;14521;48.148;-1.656;2022-12-15T09:39:55;1.20;;;1.10;;
26963;SDS011;14521;48.148;-1.656;2022-12-15T09:43:26;1.73;;;1.10;;
26963;SDS011;14521;48.148;-1.656;2022-12-15T09:47:19;1.48;;;1.38;;
26963;SDS011;14521;48.148;-1.656;2022-12-15T09:51:03;1.10;;;1.00;;
26963;SDS011;14521;48.148;-1.656;2022-12-15T09:54:30;0.90;;;0.90;;
26963;SDS011;14521;48.148;-1.656;2022-12-15T10:01:26;2.03;;;1.00;;
26963;SDS011;14521;48.148;-1.656;2022-12-15T10:05:11;1.08;;;0.90;;
26963;SDS011;14521;48.148;-1.656;2022-12-15T10:09:21;1.00;;;0.90;;
26963;SDS011;14521;48.148;-1.656;2022-12-15T10:12:49;1.40;;;1.23;;
26963;SDS011;14521;48.148;-1.656;2022-12-15T10:23:40;10.23;;;1.98;;
26963;SDS011;14521;48.148;-1.656;2022-12-15T10:27:11;1.35;;;1.00;;
26963;SDS011;14521;48.148;-1.656;2022-12-15T10:30:58;3.80;;;1.10;;
26963;SDS011;14521;48.148;-1.656;2022-12-15T10:34:27;0.95;;;0.95;;
26963;SDS011;14521;48.148;-1.656;2022-12-15T10:38:03;1.10;;;1.00;;
26963;SDS011;14521;48.148;-1.656;2022-12-15T10:41:29;0.95;;;0.93;;
26963;SDS011;14521;48.148;-1.656;2022-12-15T10:44:54;0.85;;;0.85;;
26963;SDS011;14521;48.148;-1.656;2022-12-15T10:48:18;0.90;;;0.90;;
26963;SDS011;14521;48.148;-1.656;2022-12-15T10:51:46;2.63;;;1.10;;
26963;SDS011;14521;48.148;-1.656;2022-12-15T10:59:19;2.55;;;0.90;;
26963;SDS011;14521;48.148;-1.656;2022-12-15T11:02:46;1.08;;;1.08;;
26963;SDS011;14521;48.148;-1.656;2022-12-15T11:06:11;0.93;;;0.93;;
26963;SDS011;14521;48.148;-1.656;2022-12-15T11:09:37;1.15;;;1.05;;
26963;SDS011;14521;48.148;-1.656;2022-12-15T11:13:14;3.70;;;0.80;;
26963;SDS011;14521;48.148;-1.656;2022-12-15T11:16:44;0.77;;;0.77;;
26963;SDS011;14521;48.148;-1.656;2022-12-15T11:20:17;1.20;;;1.10;;
26963;SDS011;14521;48.148;-1.656;2022-12-15T11:23:46;1.60;;;1.00;;
26963;SDS011;14521;48.148;-1.656;2022-12-15T11:27:25;2.08;;;1.02;;
26963;SDS011;14521;48.148;-1.656;2022-12-15T11:31:11;1.00;;;0.90;;
26963;SDS011;14521;48.148;-1.656;2022-12-15T11:34:43;0.90;;;0.88;;
26963;SDS011;14521;48.148;-1.656;2022-12-15T11:38:12;1.20;;;1.00;;
26963;SDS011;14521;48.148;-1.656;2022-12-15T11:52:53;0.82;;;0.80;;
26963;SDS011;14521;48.148;-1.656;2022-12-15T11:56:31;1.10;;;1.05;;
26963;SDS011;14521;48.148;-1.656;2022-12-15T12:03:36;1.23;;;0.82;;
26963;SDS011;14521;48.148;-1.656;2022-12-15T12:07:25;0.75;;;0.75;;
26963;SDS011;14521;48.148;-1.656;2022-12-15T12:11:11;0.70;;;0.57;;
26963;SDS011;14521;48.148;-1.656;2022-12-15T12:22:29;0.68;;;0.63;;
26963;SDS011;14521;48.148;-1.656;2022-12-15T12:26:04;1.20;;;1.00;;
26963;SDS011;14521;48.148;-1.656;2022-12-15T12:29:33;1.33;;;1.23;;
26963;SDS011;14521;48.148;-1.656;2022-12-15T12:36:43;0.68;;;0.68;;
26963;SDS011;14521;48.148;-1.656;2022-12-15T12:40:21;1.55;;;0.80;;
26963;SDS011;14521;48.148;-1.656;2022-12-15T12:43:46;3.22;;;0.93;;
26963;SDS011;14521;48.148;-1.656;2022-12-15T12:50:36;0.90;;;0.90;;
26963;SDS011;14521;48.148;-1.656;2022-12-15T12:53:59;1.20;;;1.10;;
26963;SDS011;14521;48.148;-1.656;2022-12-15T12:57:27;2.08;;;1.00;;
26963;SDS011;14521;48.148;-1.656;2022-12-15T13:01:03;2.35;;;0.90;;
26963;SDS011;14521;48.148;-1.656;2022-12-15T13:04:37;1.15;;;1.00;;
26963;SDS011;14521;48.148;-1.656;2022-12-15T13:15:36;1.00;;;1.00;;
26963;SDS011;14521;48.148;-1.656;2022-12-15T13:19:06;0.85;;;0.80;;
26963;SDS011;14521;48.148;-1.656;2022-12-15T13:22:36;0.80;;;0.80;;
26963;SDS011;14521;48.148;-1.656;2022-12-15T13:29:32;0.80;;;0.80;;
26963;SDS011;14521;48.148;-1.656;2022-12-15T13:33:15;0.90;;;0.90;;
26963;SDS011;14521;48.148;-1.656;2022-12-15T13:40:15;0.60;;;0.60;;
26963;SDS011;14521;48.148;-1.656;2022-12-15T13:43:44;0.70;;;0.70;;
26963;SDS011;14521;48.148;-1.656;2022-12-15T13:47:11;2.92;;;0.70;;
26963;SDS011;14521;48.148;-1.656;2022-12-15T13:50:43;1.77;;;0.98;;
26963;SDS011;14521;48.148;-1.656;2022-12-15T13:54:22;0.80;;;0.80;;
26963;SDS011;14521;48.148;-1.656;2022-12-15T13:58:02;0.90;;;0.90;;
26963;SDS011;14521;48.148;-1.656;2022-12-15T14:01:26;0.88;;;0.80;;
26963;SDS011;14521;48.148;-1.656;2022-12-15T14:08:28;0.88;;;0.80;;
26963;SDS011;14521;48.148;-1.656;2022-12-15T14:11:51;0.70;;;0.70;;
26963;SDS011;14521;48.148;-1.656;2022-12-15T14:15:15;0.90;;;0.90;;
26963;SDS011;14521;48.148;-1.656;2022-12-15T14:18:40;0.73;;;0.73;;
26963;SDS011;14521;48.148;-1.656;2022-12-15T14:22:16;0.95;;;0.70;;
26963;SDS011;14521;48.148;-1.656;2022-12-15T14:25:51;1.13;;;0.82;;
26963;SDS011;14521;48.148;-1.656;2022-12-15T14:29:15;2.78;;;0.90;;
26963;SDS011;14521;48.148;-1.656;2022-12-15T14:32:38;0.70;;;0.70;;
26963;SDS011;14521;48.148;-1.656;2022-12-15T14:36:06;0.77;;;0.77;;
26963;SDS011;14521;48.148;-1.656;2022-12-15T14:42:56;0.80;;;0.80;;
26963;SDS011;14521;48.148;-1.656;2022-12-15T14:46:21;0.85;;;0.85;;
26963;SDS011;14521;48.148;-1.656;2022-12-15T14:49:45;0.65;;;0.65;;
26963;SDS011;14521;48.148;-1.656;2022-12-15T14:53:15;0.70;;;0.70;;
26963;SDS011;14521;48.148;-1.656;2022-12-15T14:56:40;0.75;;;0.75;;
26963;SDS011;14521;48.148;-1.656;2022-12-15T15:00:26;0.63;;;0.63;;
26963;SDS011;14521;48.148;-1.656;2022-12-15T15:03:54;0.80;;;0.80;;
26963;SDS011;14521;48.148;-1.656;2022-12-15T15:07:25;1.10;;;1.00;;
26963;SDS011;14521;48.148;-1.656;2022-12-15T15:10:49;0.70;;;0.70;;
26963;SDS011;14521;48.148;-1.656;2022-12-15T15:14:14;0.90;;;0.90;;
26963;SDS011;14521;48.148;-1.656;2022-12-15T15:21:17;0.50;;;0.50;;
26963;SDS011;14521;48.148;-1.656;2022-12-15T15:24:49;1.30;;;1.17;;
26963;SDS011;14521;48.148;-1.656;2022-12-15T15:31:40;0.93;;;0.70;;
26963;SDS011;14521;48.148;-1.656;2022-12-15T15:35:03;0.55;;;0.55;;
26963;SDS011;14521;48.148;-1.656;2022-12-15T15:38:30;1.00;;;0.80;;
26963;SDS011;14521;48.148;-1.656;2022-12-15T15:41:56;0.77;;;0.77;;
26963;SDS011;14521;48.148;-1.656;2022-12-15T15:45:18;0.60;;;0.60;;
26963;SDS011;14521;48.148;-1.656;2022-12-15T15:48:41;0.80;;;0.75;;
26963;SDS011;14521;48.148;-1.656;2022-12-15T15:52:18;0.90;;;0.90;;
26963;SDS011;14521;48.148;-1.656;2022-12-15T15:55:41;0.70;;;0.70;;
26963;SDS011;14521;48.148;-1.656;2022-12-15T15:59:08;0.65;;;0.50;;
26963;SDS011;14521;48.148;-1.656;2022-12-15T16:02:32;0.90;;;0.90;;
26963;SDS011;14521;48.148;-1.656;2022-12-15T16:05:55;0.70;;;0.70;;
26963;SDS011;14521;48.148;-1.656;2022-12-15T16:09:18;2.38;;;0.80;;
26963;SDS011;14521;48.148;-1.656;2022-12-15T16:12:41;1.13;;;0.90;;
26963;SDS011;14521;48.148;-1.656;2022-12-15T16:16:16;0.68;;;0.68;;
26963;SDS011;14521;48.148;-1.656;2022-12-15T16:19:40;0.70;;;0.70;;
26963;SDS011;14521;48.148;-1.656;2022-12-15T16:23:13;1.63;;;0.70;;
26963;SDS011;14521;48.148;-1.656;2022-12-15T16:26:48;0.60;;;0.60;;
26963;SDS011;14521;48.148;-1.656;2022-12-15T16:30:15;0.68;;;0.68;;
26963;SDS011;14521;48.148;-1.656;2022-12-15T16:33:39;0.73;;;0.73;;
26963;SDS011;14521;48.148;-1.656;2022-12-15T16:37:02;0.80;;;0.77;;
26963;SDS011;14521;48.148;-1.656;2022-12-15T16:40:25;0.77;;;0.77;;
26963;SDS011;14521;48.148;-1.656;2022-12-15T16:43:48;1.10;;;1.05;;
26963;SDS011;14521;48.148;-1.656;2022-12-15T16:47:10;2.85;;;0.73;;
26963;SDS011;14521;48.148;-1.656;2022-12-15T16:50:33;0.73;;;0.73;;
26963;SDS011;14521;48.148;-1.656;2022-12-15T16:53:58;0.77;;;0.77;;
26963;SDS011;14521;48.148;-1.656;2022-12-15T16:57:20;1.00;;;0.90;;
26963;SDS011;14521;48.148;-1.656;2022-12-15T17:00:43;1.08;;;1.00;;
26963;SDS011;14521;48.148;-1.656;2022-12-15T17:04:06;1.08;;;1.08;;
26963;SDS011;14521;48.148;-1.656;2022-12-15T17:07:28;2.67;;;0.90;;
26963;SDS011;14521;48.148;-1.656;2022-12-15T17:10:51;2.70;;;1.13;;
26963;SDS011;14521;48.148;-1.656;2022-12-15T17:14:13;1.27;;;0.52;;
26963;SDS011;14521;48.148;-1.656;2022-12-15T17:17:37;4.38;;;1.02;;
26963;SDS011;14521;48.148;-1.656;2022-12-15T17:21:22;0.80;;;0.80;;
26963;SDS011;14521;48.148;-1.656;2022-12-15T17:24:47;5.43;;;0.70;;
26963;SDS011;14521;48.148;-1.656;2022-12-15T17:28:20;0.70;;;0.60;;
26963;SDS011;14521;48.148;-1.656;2022-12-15T17:31:45;1.05;;;1.00;;
26963;SDS011;14521;48.148;-1.656;2022-12-15T17:35:07;0.95;;;0.80;;
26963;SDS011;14521;48.148;-1.656;2022-12-15T17:38:30;1.58;;;0.88;;
26963;SDS011;14521;48.148;-1.656;2022-12-15T17:41:53;1.83;;;0.55;;
26963;SDS011;14521;48.148;-1.656;2022-12-15T17:45:22;3.40;;;0.70;;
26963;SDS011;14521;48.148;-1.656;2022-12-15T17:48:45;2.45;;;0.70;;
26963;SDS011;14521;48.148;-1.656;2022-12-15T17:55:35;3.47;;;0.80;;
26963;SDS011;14521;48.148;-1.656;2022-12-15T17:58:58;1.60;;;0.50;;
26963;SDS011;14521;48.148;-1.656;2022-12-15T18:02:20;0.80;;;0.77;;
26963;SDS011;14521;48.148;-1.656;2022-12-15T18:05:43;0.55;;;0.55;;
26963;SDS011;14521;48.148;-1.656;2022-12-15T18:09:16;2.60;;;0.97;;
26963;SDS011;14521;48.148;-1.656;2022-12-15T18:12:40;0.50;;;0.50;;
26963;SDS011;14521;48.148;-1.656;2022-12-15T18:16:02;0.70;;;0.70;;
26963;SDS011;14521;48.148;-1.656;2022-12-15T18:19:25;0.70;;;0.70;;
26963;SDS011;14521;48.148;-1.656;2022-12-15T18:22:55;1.55;;;0.47;;
26963;SDS011;14521;48.148;-1.656;2022-12-15T18:26:17;2.10;;;0.47;;
26963;SDS011;14521;48.148;-1.656;2022-12-15T18:29:39;1.27;;;0.60;;
26963;SDS011;14521;48.148;-1.656;2022-12-15T18:33:02;0.60;;;0.60;;
26963;SDS011;14521;48.148;-1.656;2022-12-15T18:36:24;0.60;;;0.50;;
26963;SDS011;14521;48.148;-1.656;2022-12-15T18:39:47;1.02;;;0.50;;
26963;SDS011;14521;48.148;-1.656;2022-12-15T18:43:13;0.95;;;0.60;;
26963;SDS011;14521;48.148;-1.656;2022-12-15T18:46:37;0.50;;;0.50;;
26963;SDS011;14521;48.148;-1.656;2022-12-15T18:50:13;0.70;;;0.70;;
26963;SDS011;14521;48.148;-1.656;2022-12-15T18:53:41;2.72;;;0.60;;
26963;SDS011;14521;48.148;-1.656;2022-12-15T18:57:08;3.83;;;0.57;;
26963;SDS011;14521;48.148;-1.656;2022-12-15T19:00:52;1.63;;;0.47;;
26963;SDS011;14521;48.148;-1.656;2022-12-15T19:04:17;0.95;;;0.60;;
26963;SDS011;14521;48.148;-1.656;2022-12-15T19:07:39;0.70;;;0.70;;
26963;SDS011;14521;48.148;-1.656;2022-12-15T19:11:12;2.13;;;0.50;;
26963;SDS011;14521;48.148;-1.656;2022-12-15T19:14:39;0.70;;;0.70;;
26963;SDS011;14521;48.148;-1.656;2022-12-15T19:18:01;2.45;;;0.52;;
26963;SDS011;14521;48.148;-1.656;2022-12-15T19:21:42;1.20;;;0.45;;
26963;SDS011;14521;48.148;-1.656;2022-12-15T19:25:24;1.23;;;0.63;;
26963;SDS011;14521;48.148;-1.656;2022-12-15T19:28:48;0.80;;;0.63;;
26963;SDS011;14521;48.148;-1.656;2022-12-15T19:32:11;0.50;;;0.50;;
26963;SDS011;14521;48.148;-1.656;2022-12-15T19:35:34;0.80;;;0.63;;
26963;SDS011;14521;48.148;-1.656;2022-12-15T19:38:57;0.75;;;0.65;;
26963;SDS011;14521;48.148;-1.656;2022-12-15T19:42:27;0.50;;;0.45;;
26963;SDS011;14521;48.148;-1.656;2022-12-15T19:45:51;1.48;;;0.88;;
26963;SDS011;14521;48.148;-1.656;2022-12-15T19:49:14;0.70;;;0.47;;
26963;SDS011;14521;48.148;-1.656;2022-12-15T19:52:36;0.75;;;0.60;;
26963;SDS011;14521;48.148;-1.656;2022-12-15T19:55:59;0.50;;;0.50;;
26963;SDS011;14521;48.148;-1.656;2022-12-15T19:59:23;1.58;;;0.70;;
26963;SDS011;14521;48.148;-1.656;2022-12-15T20:02:49;0.88;;;0.60;;
26963;SDS011;14521;48.148;-1.656;2022-12-15T20:06:15;0.70;;;0.70;;
26963;SDS011;14521;48.148;-1.656;2022-12-15T20:09:39;0.88;;;0.70;;
26963;SDS011;14521;48.148;-1.656;2022-12-15T20:13:01;1.92;;;0.68;;
26963;SDS011;14521;48.148;-1.656;2022-12-15T20:16:24;0.57;;;0.57;;
26963;SDS011;14521;48.148;-1.656;2022-12-15T20:19:46;0.77;;;0.50;;
26963;SDS011;14521;48.148;-1.656;2022-12-15T20:23:10;1.13;;;0.75;;
26963;SDS011;14521;48.148;-1.656;2022-12-15T20:26:37;1.50;;;0.68;;
26963;SDS011;14521;48.148;-1.656;2022-12-15T20:29:59;0.65;;;0.65;;
26963;SDS011;14521;48.148;-1.656;2022-12-15T20:33:22;2.40;;;0.75;;
26963;SDS011;14521;48.148;-1.656;2022-12-15T20:36:45;0.50;;;0.50;;
26963;SDS011;14521;48.148;-1.656;2022-12-15T20:43:40;0.73;;;0.70;;
26963;SDS011;14521;48.148;-1.656;2022-12-15T20:47:03;0.60;;;0.60;;
26963;SDS011;14521;48.148;-1.656;2022-12-15T20:50:35;0.40;;;0.40;;
26963;SDS011;14521;48.148;-1.656;2022-12-15T20:54:02;1.00;;;0.85;;
26963;SDS011;14521;48.148;-1.656;2022-12-15T20:57:27;0.75;;;0.75;;
26963;SDS011;14521;48.148;-1.656;2022-12-15T21:00:50;0.60;;;0.60;;
26963;SDS011;14521;48.148;-1.656;2022-12-15T21:04:18;0.70;;;0.68;;
26963;SDS011;14521;48.148;-1.656;2022-12-15T21:14:46;0.77;;;0.77;;
26963;SDS011;14521;48.148;-1.656;2022-12-15T21:18:12;0.65;;;0.65;;
26963;SDS011;14521;48.148;-1.656;2022-12-15T21:25:24;0.70;;;0.60;;
26963;SDS011;14521;48.148;-1.656;2022-12-15T21:28:47;0.70;;;0.70;;
26963;SDS011;14521;48.148;-1.656;2022-12-15T21:32:10;0.68;;;0.65;;
26963;SDS011;14521;48.148;-1.656;2022-12-15T21:35:33;1.33;;;0.57;;
26963;SDS011;14521;48.148;-1.656;2022-12-15T21:38:56;0.82;;;0.70;;
26963;SDS011;14521;48.148;-1.656;2022-12-15T21:42:19;0.80;;;0.80;;
26963;SDS011;14521;48.148;-1.656;2022-12-15T21:45:42;0.68;;;0.63;;
26963;SDS011;14521;48.148;-1.656;2022-12-15T21:49:04;0.73;;;0.73;;
26963;SDS011;14521;48.148;-1.656;2022-12-15T21:52:36;0.98;;;0.90;;
26963;SDS011;14521;48.148;-1.656;2022-12-15T21:55:58;0.85;;;0.80;;
26963;SDS011;14521;48.148;-1.656;2022-12-15T21:59:23;1.00;;;1.00;;
26963;SDS011;14521;48.148;-1.656;2022-12-15T22:02:49;0.70;;;0.70;;
26963;SDS011;14521;48.148;-1.656;2022-12-15T22:09:46;1.00;;;1.00;;
26963;SDS011;14521;48.148;-1.656;2022-12-15T22:13:10;2.25;;;0.70;;
26963;SDS011;14521;48.148;-1.656;2022-12-15T22:16:36;0.90;;;0.90;;
26963;SDS011;14521;48.148;-1.656;2022-12-15T22:19:59;1.38;;;0.77;;
26963;SDS011;14521;48.148;-1.656;2022-12-15T22:23:21;0.80;;;0.80;;
26963;SDS011;14521;48.148;-1.656;2022-12-15T22:26:43;0.98;;;0.80;;
26963;SDS011;14521;48.148;-1.656;2022-12-15T22:30:12;0.90;;;0.80;;
26963;SDS011;14521;48.148;-1.656;2022-12-15T22:33:39;1.05;;;0.70;;
26963;SDS011;14521;48.148;-1.656;2022-12-15T22:37:01;0.95;;;0.90;;
26963;SDS011;14521;48.148;-1.656;2022-12-15T22:40:24;0.80;;;0.80;;